sensor_id;sensor_type;location;lat;lon;timestamp;P1;durP1;ratioP1;P2;durP2;ratioP2
58992;SDS011;44782;0.000;0.000;2023-05-16T00:00:37;1.60;;;1.33;;
58992;SDS011;44782;0.000;0.000;2023-05-16T00:02:53;3.47;;;1.90;;
58992;SDS011;44782;0.000;0.000;2023-05-16T00:05:09;1.70;;;1.60;;
58992;SDS011;44782;0.000;0.000;2023-05-16T00:07:28;1.87;;;1.40;;
58992;SDS011;44782;0.000;0.000;2023-05-16T00:09:44;3.17;;;1.80;;
58992;SDS011;44782;0.000;0.000;2023-05-16T00:12:01;2.97;;;1.87;;
58992;SDS011;44782;0.000;0.000;2023-05-16T00:14:16;2.00;;;1.60;;
58992;SDS011;44782;0.000;0.000;2023-05-16T00:16:33;2.20;;;1.70;;
58992;SDS011;44782;0.000;0.000;2023-05-16T00:18:50;2.33;;;1.80;;
58992;SDS011;44782;0.000;0.000;2023-05-16T00:21:06;1.83;;;1.60;;
58992;SDS011;44782;0.000;0.000;2023-05-16T00:23:22;3.17;;;1.70;;
58992;SDS011;44782;0.000;0.000;2023-05-16T00:25:37;2.83;;;1.70;;
58992;SDS011;44782;0.000;0.000;2023-05-16T00:27:53;3.00;;;1.67;;
58992;SDS011;44782;0.000;0.000;2023-05-16T00:30:09;2.77;;;1.60;;
58992;SDS011;44782;0.000;0.000;2023-05-16T00:32:25;1.90;;;1.63;;
58992;SDS011;44782;0.000;0.000;2023-05-16T00:34:41;2.40;;;1.77;;
58992;SDS011;44782;0.000;0.000;2023-05-16T00:36:58;3.40;;;1.63;;
58992;SDS011;44782;0.000;0.000;2023-05-16T00:39:13;3.00;;;1.83;;
58992;SDS011;44782;0.000;0.000;2023-05-16T00:41:29;2.63;;;1.60;;
58992;SDS011;44782;0.000;0.000;2023-05-16T00:43:45;3.33;;;1.80;;
58992;SDS011;44782;0.000;0.000;2023-05-16T00:46:01;1.90;;;1.47;;
58992;SDS011;44782;0.000;0.000;2023-05-16T00:48:16;4.23;;;2.00;;
58992;SDS011;44782;0.000;0.000;2023-05-16T00:50:33;2.10;;;1.60;;
58992;SDS011;44782;0.000;0.000;2023-05-16T00:52:49;1.60;;;1.50;;
58992;SDS011;44782;0.000;0.000;2023-05-16T00:55:08;3.00;;;1.63;;
58992;SDS011;44782;0.000;0.000;2023-05-16T00:57:27;2.60;;;1.77;;
58992;SDS011;44782;0.000;0.000;2023-05-16T00:59:43;2.63;;;1.90;;
58992;SDS011;44782;0.000;0.000;2023-05-16T01:02:03;2.77;;;1.80;;
58992;SDS011;44782;0.000;0.000;2023-05-16T01:04:19;3.10;;;1.77;;
58992;SDS011;44782;0.000;0.000;2023-05-16T01:06:35;2.73;;;1.80;;
58992;SDS011;44782;0.000;0.000;2023-05-16T01:08:51;2.27;;;1.50;;
58992;SDS011;44782;0.000;0.000;2023-05-16T01:11:08;2.33;;;1.60;;
58992;SDS011;44782;0.000;0.000;2023-05-16T01:13:46;1.90;;;1.70;;
58992;SDS011;44782;0.000;0.000;2023-05-16T01:16:16;2.90;;;1.67;;
58992;SDS011;44782;0.000;0.000;2023-05-16T01:18:54;2.23;;;1.67;;
58992;SDS011;44782;0.000;0.000;2023-05-16T01:23:59;2.17;;;1.70;;
58992;SDS011;44782;0.000;0.000;2023-05-16T01:26:27;1.97;;;1.50;;
58992;SDS011;44782;0.000;0.000;2023-05-16T01:28:44;3.33;;;1.90;;
58992;SDS011;44782;0.000;0.000;2023-05-16T01:31:02;3.03;;;1.60;;
58992;SDS011;44782;0.000;0.000;2023-05-16T01:33:20;2.23;;;1.70;;
58992;SDS011;44782;0.000;0.000;2023-05-16T01:35:41;2.40;;;1.80;;
58992;SDS011;44782;0.000;0.000;2023-05-16T01:38:09;4.73;;;1.80;;
58992;SDS011;44782;0.000;0.000;2023-05-16T01:43:07;2.23;;;1.50;;
58992;SDS011;44782;0.000;0.000;2023-05-16T01:45:28;2.60;;;1.80;;
58992;SDS011;44782;0.000;0.000;2023-05-16T01:47:49;2.13;;;1.50;;
58992;SDS011;44782;0.000;0.000;2023-05-16T01:50:32;2.40;;;1.60;;
58992;SDS011;44782;0.000;0.000;2023-05-16T01:52:55;2.63;;;1.60;;
58992;SDS011;44782;0.000;0.000;2023-05-16T01:55:31;2.60;;;1.40;;
58992;SDS011;44782;0.000;0.000;2023-05-16T01:57:55;2.63;;;1.77;;
58992;SDS011;44782;0.000;0.000;2023-05-16T02:00:13;2.60;;;1.60;;
58992;SDS011;44782;0.000;0.000;2023-05-16T02:02:44;2.83;;;1.70;;
58992;SDS011;44782;0.000;0.000;2023-05-16T02:05:02;1.83;;;1.40;;
58992;SDS011;44782;0.000;0.000;2023-05-16T02:09:43;1.70;;;1.40;;
58992;SDS011;44782;0.000;0.000;2023-05-16T02:12:09;1.67;;;1.57;;
58992;SDS011;44782;0.000;0.000;2023-05-16T02:14:25;1.80;;;1.50;;
58992;SDS011;44782;0.000;0.000;2023-05-16T02:16:50;2.00;;;1.50;;
58992;SDS011;44782;0.000;0.000;2023-05-16T02:19:07;2.70;;;1.70;;
58992;SDS011;44782;0.000;0.000;2023-05-16T02:21:26;1.90;;;1.70;;
58992;SDS011;44782;0.000;0.000;2023-05-16T02:23:41;2.07;;;1.40;;
58992;SDS011;44782;0.000;0.000;2023-05-16T02:26:02;2.43;;;1.60;;
58992;SDS011;44782;0.000;0.000;2023-05-16T02:28:18;2.27;;;1.47;;
58992;SDS011;44782;0.000;0.000;2023-05-16T02:30:35;1.60;;;1.40;;
58992;SDS011;44782;0.000;0.000;2023-05-16T02:32:53;2.30;;;1.40;;
58992;SDS011;44782;0.000;0.000;2023-05-16T02:35:11;2.17;;;1.50;;
58992;SDS011;44782;0.000;0.000;2023-05-16T02:37:28;3.17;;;1.70;;
58992;SDS011;44782;0.000;0.000;2023-05-16T02:39:47;1.80;;;1.47;;
58992;SDS011;44782;0.000;0.000;2023-05-16T02:42:11;1.97;;;1.57;;
58992;SDS011;44782;0.000;0.000;2023-05-16T02:44:31;2.17;;;1.50;;
58992;SDS011;44782;0.000;0.000;2023-05-16T02:46:47;2.50;;;1.50;;
58992;SDS011;44782;0.000;0.000;2023-05-16T02:49:09;2.27;;;1.60;;
58992;SDS011;44782;0.000;0.000;2023-05-16T02:51:28;2.17;;;1.50;;
58992;SDS011;44782;0.000;0.000;2023-05-16T02:53:47;2.03;;;1.50;;
58992;SDS011;44782;0.000;0.000;2023-05-16T02:56:10;1.93;;;1.47;;
58992;SDS011;44782;0.000;0.000;2023-05-16T02:58:29;2.47;;;1.53;;
58992;SDS011;44782;0.000;0.000;2023-05-16T03:00:45;2.20;;;1.63;;
58992;SDS011;44782;0.000;0.000;2023-05-16T03:03:03;2.30;;;1.50;;
58992;SDS011;44782;0.000;0.000;2023-05-16T03:05:19;2.07;;;1.53;;
58992;SDS011;44782;0.000;0.000;2023-05-16T03:07:38;2.73;;;1.60;;
58992;SDS011;44782;0.000;0.000;2023-05-16T03:09:57;1.97;;;1.57;;
58992;SDS011;44782;0.000;0.000;2023-05-16T03:12:15;3.07;;;1.50;;
58992;SDS011;44782;0.000;0.000;2023-05-16T03:14:31;1.87;;;1.67;;
58992;SDS011;44782;0.000;0.000;2023-05-16T03:16:51;3.20;;;1.80;;
58992;SDS011;44782;0.000;0.000;2023-05-16T03:19:09;3.20;;;1.70;;
58992;SDS011;44782;0.000;0.000;2023-05-16T03:21:25;2.37;;;1.80;;
58992;SDS011;44782;0.000;0.000;2023-05-16T03:23:42;2.93;;;1.50;;
58992;SDS011;44782;0.000;0.000;2023-05-16T03:25:59;3.13;;;1.77;;
58992;SDS011;44782;0.000;0.000;2023-05-16T03:28:15;3.00;;;1.90;;
58992;SDS011;44782;0.000;0.000;2023-05-16T03:30:35;2.57;;;1.60;;
58992;SDS011;44782;0.000;0.000;2023-05-16T03:32:54;2.40;;;1.60;;
58992;SDS011;44782;0.000;0.000;2023-05-16T03:35:10;1.63;;;1.30;;
58992;SDS011;44782;0.000;0.000;2023-05-16T03:37:28;2.47;;;1.70;;
58992;SDS011;44782;0.000;0.000;2023-05-16T03:39:44;1.90;;;1.43;;
58992;SDS011;44782;0.000;0.000;2023-05-16T03:42:01;2.00;;;1.47;;
58992;SDS011;44782;0.000;0.000;2023-05-16T03:44:18;2.93;;;1.50;;
58992;SDS011;44782;0.000;0.000;2023-05-16T03:46:34;2.33;;;1.43;;
58992;SDS011;44782;0.000;0.000;2023-05-16T03:48:54;2.17;;;1.70;;
58992;SDS011;44782;0.000;0.000;2023-05-16T03:51:10;2.37;;;1.60;;
58992;SDS011;44782;0.000;0.000;2023-05-16T03:53:27;3.03;;;1.80;;
58992;SDS011;44782;0.000;0.000;2023-05-16T03:55:43;1.93;;;1.57;;
58992;SDS011;44782;0.000;0.000;2023-05-16T03:57:59;2.60;;;1.50;;
58992;SDS011;44782;0.000;0.000;2023-05-16T04:00:15;1.83;;;1.60;;
58992;SDS011;44782;0.000;0.000;2023-05-16T04:02:31;2.53;;;1.70;;
58992;SDS011;44782;0.000;0.000;2023-05-16T04:04:46;2.63;;;1.57;;
58992;SDS011;44782;0.000;0.000;2023-05-16T04:07:02;2.83;;;1.60;;
58992;SDS011;44782;0.000;0.000;2023-05-16T04:09:18;1.53;;;1.20;;
58992;SDS011;44782;0.000;0.000;2023-05-16T04:11:33;2.17;;;1.50;;
58992;SDS011;44782;0.000;0.000;2023-05-16T04:13:50;2.23;;;1.40;;
58992;SDS011;44782;0.000;0.000;2023-05-16T04:16:07;2.47;;;1.40;;
58992;SDS011;44782;0.000;0.000;2023-05-16T04:18:23;2.03;;;1.30;;
58992;SDS011;44782;0.000;0.000;2023-05-16T04:20:40;1.97;;;1.50;;
58992;SDS011;44782;0.000;0.000;2023-05-16T04:22:56;2.20;;;1.60;;
58992;SDS011;44782;0.000;0.000;2023-05-16T04:25:12;2.00;;;1.50;;
58992;SDS011;44782;0.000;0.000;2023-05-16T04:27:28;1.87;;;1.40;;
58992;SDS011;44782;0.000;0.000;2023-05-16T04:29:44;2.07;;;1.37;;
58992;SDS011;44782;0.000;0.000;2023-05-16T04:32:00;1.67;;;1.40;;
58992;SDS011;44782;0.000;0.000;2023-05-16T04:34:16;1.80;;;1.43;;
58992;SDS011;44782;0.000;0.000;2023-05-16T04:36:32;2.30;;;1.47;;
58992;SDS011;44782;0.000;0.000;2023-05-16T04:38:49;1.43;;;1.30;;
58992;SDS011;44782;0.000;0.000;2023-05-16T04:41:05;2.03;;;1.50;;
58992;SDS011;44782;0.000;0.000;2023-05-16T04:43:21;2.00;;;1.47;;
58992;SDS011;44782;0.000;0.000;2023-05-16T04:45:36;2.30;;;1.90;;
58992;SDS011;44782;0.000;0.000;2023-05-16T04:47:52;1.93;;;1.60;;
58992;SDS011;44782;0.000;0.000;2023-05-16T04:50:08;2.07;;;1.60;;
58992;SDS011;44782;0.000;0.000;2023-05-16T04:52:24;2.03;;;1.50;;
58992;SDS011;44782;0.000;0.000;2023-05-16T04:54:39;1.83;;;1.30;;
58992;SDS011;44782;0.000;0.000;2023-05-16T04:56:55;1.83;;;1.50;;
58992;SDS011;44782;0.000;0.000;2023-05-16T04:59:11;2.10;;;1.50;;
58992;SDS011;44782;0.000;0.000;2023-05-16T05:01:26;2.27;;;1.53;;
58992;SDS011;44782;0.000;0.000;2023-05-16T05:03:42;2.93;;;1.50;;
58992;SDS011;44782;0.000;0.000;2023-05-16T05:05:58;2.80;;;1.80;;
58992;SDS011;44782;0.000;0.000;2023-05-16T05:08:13;2.60;;;1.67;;
58992;SDS011;44782;0.000;0.000;2023-05-16T05:10:30;2.13;;;1.50;;
58992;SDS011;44782;0.000;0.000;2023-05-16T05:12:46;1.60;;;1.30;;
58992;SDS011;44782;0.000;0.000;2023-05-16T05:15:02;1.63;;;1.43;;
58992;SDS011;44782;0.000;0.000;2023-05-16T05:17:19;1.47;;;1.30;;
58992;SDS011;44782;0.000;0.000;2023-05-16T05:19:35;2.40;;;1.60;;
58992;SDS011;44782;0.000;0.000;2023-05-16T05:21:51;2.00;;;1.50;;
58992;SDS011;44782;0.000;0.000;2023-05-16T05:24:07;2.90;;;1.70;;
58992;SDS011;44782;0.000;0.000;2023-05-16T05:26:23;2.03;;;1.50;;
58992;SDS011;44782;0.000;0.000;2023-05-16T05:28:40;1.77;;;1.47;;
58992;SDS011;44782;0.000;0.000;2023-05-16T05:30:55;1.57;;;1.47;;
58992;SDS011;44782;0.000;0.000;2023-05-16T05:33:13;3.97;;;1.60;;
58992;SDS011;44782;0.000;0.000;2023-05-16T05:35:31;2.70;;;1.60;;
58992;SDS011;44782;0.000;0.000;2023-05-16T05:37:46;1.90;;;1.47;;
58992;SDS011;44782;0.000;0.000;2023-05-16T05:40:02;1.60;;;1.50;;
58992;SDS011;44782;0.000;0.000;2023-05-16T05:42:19;2.47;;;1.50;;
58992;SDS011;44782;0.000;0.000;2023-05-16T05:44:34;2.43;;;1.57;;
58992;SDS011;44782;0.000;0.000;2023-05-16T05:46:51;2.10;;;1.37;;
58992;SDS011;44782;0.000;0.000;2023-05-16T05:49:07;2.10;;;1.50;;
58992;SDS011;44782;0.000;0.000;2023-05-16T05:51:23;2.60;;;1.70;;
58992;SDS011;44782;0.000;0.000;2023-05-16T05:53:40;3.00;;;1.50;;
58992;SDS011;44782;0.000;0.000;2023-05-16T05:55:55;2.33;;;1.80;;
58992;SDS011;44782;0.000;0.000;2023-05-16T05:58:11;2.20;;;1.57;;
58992;SDS011;44782;0.000;0.000;2023-05-16T06:00:27;2.20;;;1.40;;
58992;SDS011;44782;0.000;0.000;2023-05-16T06:02:43;2.73;;;1.67;;
58992;SDS011;44782;0.000;0.000;2023-05-16T06:04:58;2.10;;;1.50;;
58992;SDS011;44782;0.000;0.000;2023-05-16T06:07:14;2.27;;;1.50;;
58992;SDS011;44782;0.000;0.000;2023-05-16T06:09:30;2.07;;;1.43;;
58992;SDS011;44782;0.000;0.000;2023-05-16T06:11:46;1.93;;;1.40;;
58992;SDS011;44782;0.000;0.000;2023-05-16T06:14:02;2.07;;;1.60;;
58992;SDS011;44782;0.000;0.000;2023-05-16T06:16:17;2.07;;;1.47;;
58992;SDS011;44782;0.000;0.000;2023-05-16T06:18:33;2.10;;;1.57;;
58992;SDS011;44782;0.000;0.000;2023-05-16T06:20:49;2.77;;;1.50;;
58992;SDS011;44782;0.000;0.000;2023-05-16T06:23:06;3.03;;;1.70;;
58992;SDS011;44782;0.000;0.000;2023-05-16T06:25:21;2.60;;;1.50;;
58992;SDS011;44782;0.000;0.000;2023-05-16T06:27:37;3.13;;;1.60;;
58992;SDS011;44782;0.000;0.000;2023-05-16T06:29:53;2.53;;;1.43;;
58992;SDS011;44782;0.000;0.000;2023-05-16T06:32:08;1.80;;;1.40;;
58992;SDS011;44782;0.000;0.000;2023-05-16T06:34:24;2.17;;;1.50;;
58992;SDS011;44782;0.000;0.000;2023-05-16T06:36:42;3.10;;;1.70;;
58992;SDS011;44782;0.000;0.000;2023-05-16T06:38:58;1.63;;;1.30;;
58992;SDS011;44782;0.000;0.000;2023-05-16T06:41:14;2.80;;;1.47;;
58992;SDS011;44782;0.000;0.000;2023-05-16T06:43:29;2.73;;;1.60;;
58992;SDS011;44782;0.000;0.000;2023-05-16T06:45:45;2.53;;;1.63;;
58992;SDS011;44782;0.000;0.000;2023-05-16T06:48:01;2.13;;;1.40;;
58992;SDS011;44782;0.000;0.000;2023-05-16T06:50:17;2.10;;;1.50;;
58992;SDS011;44782;0.000;0.000;2023-05-16T06:52:33;2.53;;;1.60;;
58992;SDS011;44782;0.000;0.000;2023-05-16T06:54:48;2.13;;;1.50;;
58992;SDS011;44782;0.000;0.000;2023-05-16T06:57:04;2.77;;;1.60;;
58992;SDS011;44782;0.000;0.000;2023-05-16T06:59:22;1.77;;;1.23;;
58992;SDS011;44782;0.000;0.000;2023-05-16T07:01:38;2.00;;;1.40;;
58992;SDS011;44782;0.000;0.000;2023-05-16T07:03:53;1.97;;;1.60;;
58992;SDS011;44782;0.000;0.000;2023-05-16T07:06:09;2.40;;;1.40;;
58992;SDS011;44782;0.000;0.000;2023-05-16T07:08:25;2.40;;;1.47;;
58992;SDS011;44782;0.000;0.000;2023-05-16T07:13:00;2.27;;;1.60;;
58992;SDS011;44782;0.000;0.000;2023-05-16T07:15:16;3.00;;;1.40;;
58992;SDS011;44782;0.000;0.000;2023-05-16T07:17:32;1.70;;;1.40;;
58992;SDS011;44782;0.000;0.000;2023-05-16T07:19:48;2.27;;;1.40;;
58992;SDS011;44782;0.000;0.000;2023-05-16T07:22:04;2.87;;;1.60;;
58992;SDS011;44782;0.000;0.000;2023-05-16T07:24:20;2.03;;;1.40;;
58992;SDS011;44782;0.000;0.000;2023-05-16T07:26:35;2.23;;;1.40;;
58992;SDS011;44782;0.000;0.000;2023-05-16T07:28:51;2.17;;;1.60;;
58992;SDS011;44782;0.000;0.000;2023-05-16T07:31:07;1.77;;;1.20;;
58992;SDS011;44782;0.000;0.000;2023-05-16T07:33:23;1.77;;;1.37;;
58992;SDS011;44782;0.000;0.000;2023-05-16T07:35:39;2.00;;;1.50;;
58992;SDS011;44782;0.000;0.000;2023-05-16T07:37:55;1.87;;;1.43;;
58992;SDS011;44782;0.000;0.000;2023-05-16T07:40:11;1.67;;;1.27;;
58992;SDS011;44782;0.000;0.000;2023-05-16T07:42:26;2.10;;;1.40;;
58992;SDS011;44782;0.000;0.000;2023-05-16T07:44:42;1.60;;;1.37;;
58992;SDS011;44782;0.000;0.000;2023-05-16T07:46:59;2.13;;;1.40;;
58992;SDS011;44782;0.000;0.000;2023-05-16T07:49:14;2.13;;;1.37;;
58992;SDS011;44782;0.000;0.000;2023-05-16T07:51:30;1.60;;;1.33;;
58992;SDS011;44782;0.000;0.000;2023-05-16T07:53:46;2.03;;;1.47;;
58992;SDS011;44782;0.000;0.000;2023-05-16T07:56:02;1.97;;;1.33;;
58992;SDS011;44782;0.000;0.000;2023-05-16T07:58:18;2.50;;;1.60;;
58992;SDS011;44782;0.000;0.000;2023-05-16T08:00:34;1.77;;;1.30;;
58992;SDS011;44782;0.000;0.000;2023-05-16T08:02:50;1.40;;;1.20;;
58992;SDS011;44782;0.000;0.000;2023-05-16T08:05:05;2.77;;;1.50;;
58992;SDS011;44782;0.000;0.000;2023-05-16T08:07:22;1.87;;;1.37;;
58992;SDS011;44782;0.000;0.000;2023-05-16T08:09:38;1.93;;;1.20;;
58992;SDS011;44782;0.000;0.000;2023-05-16T08:11:54;1.83;;;1.40;;
58992;SDS011;44782;0.000;0.000;2023-05-16T08:14:09;1.93;;;1.37;;
58992;SDS011;44782;0.000;0.000;2023-05-16T08:16:25;1.70;;;1.30;;
58992;SDS011;44782;0.000;0.000;2023-05-16T08:18:41;2.10;;;1.30;;
58992;SDS011;44782;0.000;0.000;2023-05-16T08:20:56;1.80;;;1.40;;
58992;SDS011;44782;0.000;0.000;2023-05-16T08:23:13;1.73;;;1.27;;
58992;SDS011;44782;0.000;0.000;2023-05-16T08:25:28;2.37;;;1.50;;
58992;SDS011;44782;0.000;0.000;2023-05-16T08:27:45;2.27;;;1.50;;
58992;SDS011;44782;0.000;0.000;2023-05-16T08:30:04;1.97;;;1.67;;
58992;SDS011;44782;0.000;0.000;2023-05-16T08:32:21;1.60;;;1.30;;
58992;SDS011;44782;0.000;0.000;2023-05-16T08:34:37;1.50;;;1.33;;
58992;SDS011;44782;0.000;0.000;2023-05-16T08:36:52;1.50;;;1.33;;
58992;SDS011;44782;0.000;0.000;2023-05-16T08:39:08;1.27;;;1.17;;
58992;SDS011;44782;0.000;0.000;2023-05-16T08:41:27;2.20;;;1.50;;
58992;SDS011;44782;0.000;0.000;2023-05-16T08:43:43;2.10;;;1.37;;
58992;SDS011;44782;0.000;0.000;2023-05-16T08:45:58;1.90;;;1.37;;
58992;SDS011;44782;0.000;0.000;2023-05-16T08:48:14;1.97;;;1.50;;
58992;SDS011;44782;0.000;0.000;2023-05-16T08:50:33;2.27;;;1.30;;
58992;SDS011;44782;0.000;0.000;2023-05-16T08:52:53;1.93;;;1.33;;
58992;SDS011;44782;0.000;0.000;2023-05-16T08:55:09;1.97;;;1.27;;
58992;SDS011;44782;0.000;0.000;2023-05-16T08:57:25;1.97;;;1.30;;
58992;SDS011;44782;0.000;0.000;2023-05-16T08:59:42;3.73;;;1.47;;
58992;SDS011;44782;0.000;0.000;2023-05-16T09:01:59;1.80;;;1.10;;
58992;SDS011;44782;0.000;0.000;2023-05-16T09:04:14;1.90;;;1.27;;
58992;SDS011;44782;0.000;0.000;2023-05-16T09:06:30;1.43;;;1.30;;
58992;SDS011;44782;0.000;0.000;2023-05-16T09:08:46;2.50;;;1.40;;
58992;SDS011;44782;0.000;0.000;2023-05-16T09:11:02;2.53;;;1.37;;
58992;SDS011;44782;0.000;0.000;2023-05-16T09:13:18;1.83;;;1.37;;
58992;SDS011;44782;0.000;0.000;2023-05-16T09:15:34;1.67;;;1.30;;
58992;SDS011;44782;0.000;0.000;2023-05-16T09:17:49;1.57;;;1.27;;
58992;SDS011;44782;0.000;0.000;2023-05-16T09:20:09;1.83;;;1.33;;
58992;SDS011;44782;0.000;0.000;2023-05-16T09:22:29;1.60;;;1.40;;
58992;SDS011;44782;0.000;0.000;2023-05-16T09:24:45;1.37;;;1.10;;
58992;SDS011;44782;0.000;0.000;2023-05-16T09:27:06;1.40;;;1.10;;
58992;SDS011;44782;0.000;0.000;2023-05-16T09:29:26;2.07;;;1.30;;
58992;SDS011;44782;0.000;0.000;2023-05-16T09:31:42;2.10;;;1.30;;
58992;SDS011;44782;0.000;0.000;2023-05-16T09:33:57;1.20;;;1.10;;
58992;SDS011;44782;0.000;0.000;2023-05-16T09:36:13;1.40;;;1.30;;
58992;SDS011;44782;0.000;0.000;2023-05-16T09:38:29;1.50;;;1.20;;
58992;SDS011;44782;0.000;0.000;2023-05-16T09:40:45;2.30;;;1.33;;
58992;SDS011;44782;0.000;0.000;2023-05-16T09:45:20;1.33;;;1.23;;
58992;SDS011;44782;0.000;0.000;2023-05-16T09:47:36;2.03;;;1.20;;
58992;SDS011;44782;0.000;0.000;2023-05-16T09:49:59;1.90;;;1.27;;
58992;SDS011;44782;0.000;0.000;2023-05-16T09:52:15;1.40;;;1.30;;
58992;SDS011;44782;0.000;0.000;2023-05-16T09:54:31;2.53;;;1.33;;
58992;SDS011;44782;0.000;0.000;2023-05-16T09:56:48;1.70;;;1.10;;
58992;SDS011;44782;0.000;0.000;2023-05-16T09:59:09;1.50;;;1.20;;
58992;SDS011;44782;0.000;0.000;2023-05-16T10:01:25;1.80;;;1.30;;
58992;SDS011;44782;0.000;0.000;2023-05-16T10:03:41;1.37;;;1.10;;
58992;SDS011;44782;0.000;0.000;2023-05-16T10:05:57;1.63;;;1.33;;
58992;SDS011;44782;0.000;0.000;2023-05-16T10:08:14;1.73;;;1.23;;
58992;SDS011;44782;0.000;0.000;2023-05-16T10:10:30;1.43;;;1.23;;
58992;SDS011;44782;0.000;0.000;2023-05-16T10:12:51;1.10;;;1.00;;
58992;SDS011;44782;0.000;0.000;2023-05-16T10:15:08;1.20;;;1.10;;
58992;SDS011;44782;0.000;0.000;2023-05-16T10:17:24;1.93;;;1.07;;
58992;SDS011;44782;0.000;0.000;2023-05-16T10:19:42;1.20;;;1.10;;
58992;SDS011;44782;0.000;0.000;2023-05-16T10:21:59;1.73;;;1.10;;
58992;SDS011;44782;0.000;0.000;2023-05-16T10:24:20;2.00;;;1.30;;
58992;SDS011;44782;0.000;0.000;2023-05-16T10:26:40;1.60;;;1.30;;
58992;SDS011;44782;0.000;0.000;2023-05-16T10:28:56;1.30;;;1.07;;
58992;SDS011;44782;0.000;0.000;2023-05-16T10:31:12;1.47;;;1.20;;
58992;SDS011;44782;0.000;0.000;2023-05-16T10:33:29;1.63;;;1.10;;
58992;SDS011;44782;0.000;0.000;2023-05-16T10:35:45;1.77;;;1.20;;
58992;SDS011;44782;0.000;0.000;2023-05-16T10:38:01;1.57;;;1.10;;
58992;SDS011;44782;0.000;0.000;2023-05-16T10:40:18;1.40;;;1.17;;
58992;SDS011;44782;0.000;0.000;2023-05-16T10:42:35;1.70;;;1.20;;
58992;SDS011;44782;0.000;0.000;2023-05-16T10:44:54;1.60;;;1.00;;
58992;SDS011;44782;0.000;0.000;2023-05-16T10:47:33;1.90;;;1.10;;
58992;SDS011;44782;0.000;0.000;2023-05-16T10:49:49;1.30;;;1.10;;
58992;SDS011;44782;0.000;0.000;2023-05-16T10:52:06;1.17;;;1.07;;
58992;SDS011;44782;0.000;0.000;2023-05-16T10:54:32;1.30;;;1.00;;
58992;SDS011;44782;0.000;0.000;2023-05-16T10:56:54;1.90;;;1.30;;
58992;SDS011;44782;0.000;0.000;2023-05-16T10:59:45;1.30;;;1.10;;
58992;SDS011;44782;0.000;0.000;2023-05-16T11:01:55;1.03;;;0.97;;
58992;SDS011;44782;0.000;0.000;2023-05-16T11:04:10;1.30;;;1.10;;
58992;SDS011;44782;0.000;0.000;2023-05-16T11:08:56;1.23;;;1.00;;
58992;SDS011;44782;0.000;0.000;2023-05-16T11:14:06;1.83;;;1.30;;
58992;SDS011;44782;0.000;0.000;2023-05-16T11:16:25;1.23;;;1.10;;
58992;SDS011;44782;0.000;0.000;2023-05-16T11:18:48;1.70;;;1.17;;
58992;SDS011;44782;0.000;0.000;2023-05-16T11:21:05;1.40;;;1.03;;
58992;SDS011;44782;0.000;0.000;2023-05-16T11:23:21;1.10;;;1.00;;
58992;SDS011;44782;0.000;0.000;2023-05-16T11:25:38;2.43;;;1.20;;
58992;SDS011;44782;0.000;0.000;2023-05-16T11:27:55;1.27;;;1.17;;
58992;SDS011;44782;0.000;0.000;2023-05-16T11:30:11;1.43;;;1.00;;
58992;SDS011;44782;0.000;0.000;2023-05-16T11:32:29;1.00;;;1.00;;
58992;SDS011;44782;0.000;0.000;2023-05-16T11:34:48;1.13;;;1.03;;
58992;SDS011;44782;0.000;0.000;2023-05-16T11:37:05;2.43;;;1.20;;
58992;SDS011;44782;0.000;0.000;2023-05-16T11:39:25;1.30;;;1.10;;
58992;SDS011;44782;0.000;0.000;2023-05-16T11:41:40;1.20;;;1.03;;
58992;SDS011;44782;0.000;0.000;2023-05-16T11:43:56;1.10;;;1.00;;
58992;SDS011;44782;0.000;0.000;2023-05-16T11:46:15;1.43;;;1.13;;
58992;SDS011;44782;0.000;0.000;2023-05-16T11:48:31;1.53;;;1.07;;
58992;SDS011;44782;0.000;0.000;2023-05-16T11:50:47;1.23;;;1.13;;
58992;SDS011;44782;0.000;0.000;2023-05-16T11:53:04;1.23;;;1.00;;
58992;SDS011;44782;0.000;0.000;2023-05-16T11:55:20;1.30;;;1.20;;
58992;SDS011;44782;0.000;0.000;2023-05-16T11:57:38;1.97;;;1.30;;
58992;SDS011;44782;0.000;0.000;2023-05-16T12:00:00;1.87;;;1.30;;
58992;SDS011;44782;0.000;0.000;2023-05-16T12:02:30;2.00;;;1.20;;
58992;SDS011;44782;0.000;0.000;2023-05-16T12:04:46;1.57;;;1.20;;
58992;SDS011;44782;0.000;0.000;2023-05-16T12:07:04;1.40;;;1.20;;
58992;SDS011;44782;0.000;0.000;2023-05-16T12:09:20;1.27;;;1.17;;
58992;SDS011;44782;0.000;0.000;2023-05-16T12:11:36;1.20;;;1.10;;
58992;SDS011;44782;0.000;0.000;2023-05-16T12:13:52;1.50;;;1.20;;
58992;SDS011;44782;0.000;0.000;2023-05-16T12:16:11;1.20;;;1.00;;
58992;SDS011;44782;0.000;0.000;2023-05-16T12:18:27;1.10;;;1.00;;
58992;SDS011;44782;0.000;0.000;2023-05-16T12:20:43;2.00;;;1.00;;
58992;SDS011;44782;0.000;0.000;2023-05-16T12:22:59;1.67;;;1.20;;
58992;SDS011;44782;0.000;0.000;2023-05-16T12:25:28;1.43;;;1.00;;
58992;SDS011;44782;0.000;0.000;2023-05-16T12:27:45;1.37;;;1.00;;
58992;SDS011;44782;0.000;0.000;2023-05-16T12:30:02;1.80;;;1.20;;
58992;SDS011;44782;0.000;0.000;2023-05-16T12:32:18;1.17;;;1.07;;
58992;SDS011;44782;0.000;0.000;2023-05-16T12:34:35;1.20;;;1.10;;
58992;SDS011;44782;0.000;0.000;2023-05-16T12:36:51;1.83;;;1.10;;
58992;SDS011;44782;0.000;0.000;2023-05-16T12:39:10;1.30;;;1.13;;
58992;SDS011;44782;0.000;0.000;2023-05-16T12:41:28;1.40;;;1.10;;
58992;SDS011;44782;0.000;0.000;2023-05-16T12:43:45;2.40;;;1.10;;
58992;SDS011;44782;0.000;0.000;2023-05-16T12:46:01;1.27;;;1.17;;
58992;SDS011;44782;0.000;0.000;2023-05-16T12:48:17;1.40;;;1.00;;
58992;SDS011;44782;0.000;0.000;2023-05-16T12:50:33;1.20;;;1.10;;
58992;SDS011;44782;0.000;0.000;2023-05-16T12:52:53;1.67;;;1.20;;
58992;SDS011;44782;0.000;0.000;2023-05-16T12:55:12;1.47;;;1.10;;
58992;SDS011;44782;0.000;0.000;2023-05-16T12:57:28;1.40;;;1.20;;
58992;SDS011;44782;0.000;0.000;2023-05-16T12:59:44;1.20;;;1.03;;
58992;SDS011;44782;0.000;0.000;2023-05-16T13:01:59;1.63;;;1.27;;
58992;SDS011;44782;0.000;0.000;2023-05-16T13:04:15;1.03;;;0.97;;
58992;SDS011;44782;0.000;0.000;2023-05-16T13:06:33;1.20;;;1.10;;
58992;SDS011;44782;0.000;0.000;2023-05-16T13:08:49;1.37;;;1.00;;
58992;SDS011;44782;0.000;0.000;2023-05-16T13:11:04;1.30;;;1.20;;
58992;SDS011;44782;0.000;0.000;2023-05-16T13:13:20;1.17;;;1.03;;
58992;SDS011;44782;0.000;0.000;2023-05-16T13:15:36;1.10;;;1.00;;
58992;SDS011;44782;0.000;0.000;2023-05-16T13:17:52;1.10;;;1.03;;
58992;SDS011;44782;0.000;0.000;2023-05-16T13:20:07;1.10;;;1.00;;
58992;SDS011;44782;0.000;0.000;2023-05-16T13:22:27;1.20;;;1.10;;
58992;SDS011;44782;0.000;0.000;2023-05-16T13:24:42;1.30;;;1.00;;
58992;SDS011;44782;0.000;0.000;2023-05-16T13:26:58;1.20;;;1.10;;
58992;SDS011;44782;0.000;0.000;2023-05-16T13:29:14;1.57;;;1.10;;
58992;SDS011;44782;0.000;0.000;2023-05-16T13:31:30;1.37;;;1.00;;
58992;SDS011;44782;0.000;0.000;2023-05-16T13:33:45;1.63;;;1.10;;
58992;SDS011;44782;0.000;0.000;2023-05-16T13:36:01;1.10;;;1.00;;
58992;SDS011;44782;0.000;0.000;2023-05-16T13:38:17;1.20;;;1.00;;
58992;SDS011;44782;0.000;0.000;2023-05-16T13:40:33;1.43;;;1.00;;
58992;SDS011;44782;0.000;0.000;2023-05-16T13:42:50;1.30;;;1.20;;
58992;SDS011;44782;0.000;0.000;2023-05-16T13:45:06;1.80;;;1.10;;
58992;SDS011;44782;0.000;0.000;2023-05-16T13:47:22;1.03;;;0.97;;
58992;SDS011;44782;0.000;0.000;2023-05-16T13:49:37;1.20;;;1.10;;
58992;SDS011;44782;0.000;0.000;2023-05-16T13:51:53;1.17;;;1.07;;
58992;SDS011;44782;0.000;0.000;2023-05-16T13:54:09;1.17;;;1.07;;
58992;SDS011;44782;0.000;0.000;2023-05-16T13:56:25;1.20;;;1.10;;
58992;SDS011;44782;0.000;0.000;2023-05-16T13:58:40;0.93;;;0.93;;
58992;SDS011;44782;0.000;0.000;2023-05-16T14:00:56;1.13;;;1.03;;
58992;SDS011;44782;0.000;0.000;2023-05-16T14:03:12;1.80;;;0.97;;
58992;SDS011;44782;0.000;0.000;2023-05-16T14:05:27;1.10;;;1.00;;
58992;SDS011;44782;0.000;0.000;2023-05-16T14:07:43;1.17;;;1.07;;
58992;SDS011;44782;0.000;0.000;2023-05-16T14:09:59;0.83;;;0.83;;
58992;SDS011;44782;0.000;0.000;2023-05-16T14:12:15;1.33;;;1.10;;
58992;SDS011;44782;0.000;0.000;2023-05-16T14:14:30;1.40;;;1.10;;
58992;SDS011;44782;0.000;0.000;2023-05-16T14:16:46;1.47;;;1.17;;